Tiempo atmosférico en la estación meteorológica de Jávea/ Xàbia, Alacant/Alicante (15 m.)



Fecha
DESCASC
Temp. máxima en grados centígrados (hora)
DESCASC
Temp. mínima en grados centígrados (hora)
DESCASC
Temp. media en grados centígrados
DESCASC
Racha de viento máxima en m/sg (hora)
DESCASC
Velocidad máxima media en intervalos de 10 minutos(hora)
DESCASC
Precipitaciones diarias en mm
DESCASC
Precipitaciones de 00:00 a 06:00 en mm
DESCASC
Precipitaciones de 06:00 a 12:00 en mm
DESCASC
Precipitaciones de 12:00 a 18:00 en mm
DESCASC
Precipitaciones de 18:00 a 24:00 en mm
DESCASC
18-08-2019 -- (--) -- (--) -- -- (--) -- (--) -- 0 0 0 --
17-08-2019 33.5 (15:20) 18.8 (07:30) 26.1 8.61 (17:20) 4.72 (13:20) 0 0 0 0 0
16-08-2019 31.9 (15:20) 18.9 (07:10) 25.4 9.72 (18:40) 5.28 (15:50) 0 0 0 0 0
15-08-2019 32.9 (13:10) 20.7 (00:00) 26.8 8.89 (15:00) 5.28 (14:30) 0 0 0 0 0
14-08-2019 31.2 (16:20) 19.7 (00:00) 25.5 11.94 (15:10) 6.67 (14:40) 0 0 0 0 0
13-08-2019 30.2 (13:10) 23.1 (00:00) 26.7 8.89 (04:20) 5.28 (04:40) 0.6 0 0.6 0 0
12-08-2019 29.1 (11:30) 25 (00:00) 27.1 14.72 (12:10) 7.22 (12:00) 0 0 0 0 0
11-08-2019 34 (13:40) 26 (00:00) 30 8.33 (17:40) 5 (11:50) 0 0 0 0 0
10-08-2019 34.4 (15:00) 22.9 (00:00) 28.7 12.22 (09:50) 7.5 (09:50) 0 0 0 0 0
09-08-2019 37.9 (13:20) 20 (00:00) 29 7.78 (17:40) 3.89 (17:40) 0 0 0 0 0
08-08-2019 36.1 (16:30) 23.5 (00:00) 29.8 9.44 (21:20) 4.72 (17:40) 0 0 0 0 0
07-08-2019 32.8 (18:40) 23.7 (00:00) 28.3 6.67 (23:00) 3.89 (12:20) 0 0 0 0 0
06-08-2019 34.7 (15:30) 23.1 (00:00) 28.9 8.06 (16:50) 4.44 (20:20) 0 0 0 0 0
05-08-2019 32.2 (15:30) 22.2 (00:00) 27.2 7.5 (14:50) 4.44 (12:00) 0 0 0 0 0
04-08-2019 34.1 (16:00) 19.1 (00:00) 26.6 8.33 (14:20) 4.72 (14:10) 0 0 0 0 0
03-08-2019 32.2 (17:40) 22 (00:00) 27.1 6.67 (14:40) 3.89 (18:40) 0 0 0 0 0
02-08-2019 30.9 (16:10) 21.2 (00:00) 26.1 9.72 (11:30) 5.28 (12:00) 0 0 0 0 0
01-08-2019 29.3 (14:10) 22.8 (00:00) 26 10.83 (11:50) 5.83 (11:30) 0 0 0 0 0
31-07-2019 30 (13:40) 24 (00:00) 27 9.72 (20:00) 5.56 (20:30) 0 0 0 0 0
30-07-2019 32.6 (14:30) 22.2 (00:00) 27.4 12.22 (14:40) 6.67 (14:40) 0 0 0 0 0
29-07-2019 32.1 (13:30) 19.5 (00:00) 25.8 13.61 (15:00) 7.22 (15:00) 0 0 0 0 0
28-07-2019 30.4 (16:20) 21.9 (00:00) 26.1 10.28 (12:00) 5.83 (00:10) 0 0 0 0 0
27-07-2019 34.1 (20:20) 21.1 (00:00) 27.6 10.56 (18:40) 6.67 (23:30) 0 0 0 0 0
26-07-2019 32.7 (14:00) 20.1 (00:00) 26.4 8.33 (18:10) 4.44 (16:20) 0 0 0 0 0
25-07-2019 34.6 (17:00) 19.2 (00:00) 26.9 7.5 (17:50) 4.17 (17:40) 0 0 0 0 0
24-07-2019 34.7 (13:10) 19 (00:00) 26.9 6.39 (12:00) 3.61 (12:00) 0 0 0 0 0
23-07-2019 34 (16:20) 22.1 (00:00) 28.1 6.67 (13:50) 3.61 (10:30) 0 0 0 0 0
22-07-2019 33.4 (14:50) 23.3 (00:00) 28.4 9.72 (10:20) 5.83 (10:20) 0 0 0 0 0
21-07-2019 31.8 (14:30) 23.4 (00:00) 27.6 11.39 (13:00) 6.67 (11:30) 0 0 0 0 0

Gráficas

Temp. máximas Temp. mínimas Temp. medias Precipitaciones Rachas de viento máximas Velocidades máximas media en intervalos de 10 minutos

Datos horarios

Fecha y hora oficial Temperatura (ºC) Velocidad del viento (km/h) Dirección del viento Racha (km/h) Dirección de racha Precipitación (mm) Presión (hPa) Tendencia (hPa) Humedad (%)
2019-08-19 23:00:00 -- -- -- -- -- -- -- -- --
2019-08-19 22:00:00 -- -- -- -- -- -- -- -- --
2019-08-19 21:00:00 -- -- -- -- -- -- -- -- --
2019-08-19 20:00:00 -- -- -- -- -- -- -- -- --
2019-08-19 19:00:00 -- -- -- -- -- -- -- -- --
2019-08-19 18:00:00 -- -- -- -- -- -- -- -- --
2019-08-19 17:00:00 30.6 17 Nordeste 30 Norte 0 1012.7 -0.8 57
2019-08-19 16:00:00 31 16 Nordeste 29 Nordeste 0 1013.2 -0.5 54
2019-08-19 15:00:00 31.5 17 Norte 31 Nordeste 0 1013.5 0 53
2019-08-19 14:00:00 31.6 19 Norte 30 Nordeste 0 1013.5 0.7 52
2019-08-19 13:00:00 31.1 14 Norte 32 Norte 0 1013.7 1.6 57
2019-08-19 12:00:00 30.1 22 Norte 39 Norte 0 1013.5 1.8 62
2019-08-19 11:00:00 29.7 22 Noroeste 47 Norte 0 1012.8 1.3 61
2019-08-19 10:00:00 28.7 19 Noroeste 40 Noroeste 0 1012.1 0.9 68
2019-08-19 09:00:00 26.7 16 Noroeste 37 Noroeste 0 1011.7 1.1 79
2019-08-19 08:00:00 23.6 9 Oeste 35 Noroeste 0 1011.5 1.1 94
2019-08-19 07:00:00 22.1 6 Oeste 12 Oeste 0 1011.2 0.5 91
2019-08-19 06:00:00 22.1 5 Sudoeste 9 Oeste 0 1010.6 -0.4 92
2019-08-19 05:00:00 22.8 7 Sudoeste 9 Sudoeste 0 1010.4 -0.5 91
2019-08-19 04:00:00 24.2 3 Sur 9 Oeste 0 1010.7 0.1 89
2019-08-19 03:00:00 25 7 Oeste 10 Noroeste 0 1011 0.6 91
2019-08-19 02:00:00 25.1 3 Norte 9 Nordeste 0 1010.9 0.5 90
2019-08-19 01:00:00 25.2 3 Sur 13 Sudoeste 0 1010.6 0.9 85
2019-08-19 00:00:00 25.7 4 Sudoeste 23 Sudoeste 0 1010.4 1.2 87
2019-08-18 23:00:00 26.1 12 Sudoeste 24 Sudoeste 0 1010.4 1.4 86
2019-08-18 22:00:00 26.3 9 Sudoeste 19 Sudoeste 0 1009.7 0.5 86
2019-08-18 21:00:00 27.2 6 Sudoeste 27 Sudoeste 0 1009.2 -0.4 78
2019-08-18 20:00:00 29.2 12 Sudoeste 34 Sudoeste 0 1009 -0.9 66
2019-08-18 19:00:00 31.5 11 Sudoeste 29 Sur 0 1009.2 -0.8 54
2019-08-18 18:00:00 31.9 19 Sur 33 Sur 0 1009.6 -1 51
2019-08-18 17:00:00 34 13 Sur 30 Sudeste 0 1009.9 -1.3 44
2019-08-18 16:00:00 34 15 Sudeste 26 Sudeste 0 1010 -1.8 44
2019-08-18 15:00:00 33.5 14 Sudeste 27 Sudeste 0 1010.6 -1.1 48
2019-08-18 14:00:00 32.5 14 Sudeste 24 Este 0 1011.2 -0.6 48
2019-08-18 13:00:00 30 12 Este 21 Nordeste 0 1011.8 0.3 66
2019-08-18 12:00:00 29.8 8 Este 17 Nordeste 0 1011.7 0.4 66
2019-08-18 11:00:00 28.7 8 Nordeste 13 Nordeste 0 1011.8 0.7 68
2019-08-18 10:00:00 25.8 2 Sur 6 Oeste 0 1011.5 0.8 85
2019-08-18 09:00:00 22.3 3 Sudoeste 9 Sudoeste 0 1011.3 0.4 94
2019-08-18 08:00:00 20.5 6 Sudoeste 10 Oeste 0 1011.1 -0.2 94
2019-08-18 07:00:00 20.7 7 Oeste 9 Sudoeste 0 1010.7 -1.1 93
2019-08-18 06:00:00 21.5 5 Sudoeste 9 Oeste 0 1010.9 -1.2 93
2019-08-18 05:00:00 21.6 6 Sudoeste 9 Sudoeste 0 1011.3 -1.2 92
2019-08-18 04:00:00 22.3 6 Sudoeste 9 Sudoeste 0 1011.8 -0.8 90
2019-08-18 03:00:00 23.4 0 Calma 6 Sudoeste 0 1012.1 -0.3 86
2019-08-18 02:00:00 24.9 4 Sur 10 Oeste 0 1012.5 0.5 84
2019-08-18 01:00:00 25 0 Calma 9 Sudoeste 0 1012.6 1.4 88
2019-08-18 00:00:00 25.2 6 Sudoeste 14 Oeste 0 1012.4 1.5 85
2019-08-17 23:00:00 25.8 6 Sudoeste 18 Sudoeste 0 1012 1 86
2019-08-17 22:00:00 26 10 Sudoeste 22 Sudoeste 0 1011.2 -0.3 82
2019-08-17 21:00:00 27 6 Sudoeste 29 Sudoeste 0 1010.9 -1 72
2019-08-17 20:00:00 29.2 13 Sudoeste 24 Sur 0 1011 -1.3 62
2019-08-17 19:00:00 31.5 12 Sur 21 Sur 0 1011.5 -1.6 50
2019-08-17 18:00:00 32.3 14 Sudoeste 31 Sudoeste 0 1011.9 -1.8 43
2019-08-17 17:00:00 32.3 16 Sudoeste 29 Sudoeste 0 1012.3 -1.9 46
2019-08-17 16:00:00 32.4 16 Sudoeste 28 Sudoeste 0 1013.1 -1.4 48
2019-08-17 15:00:00 33.1 12 Sur 26 Sur 0 1013.7 -1.3 47
2019-08-17 14:00:00 32.4 13 Sudeste 29 Sur 0 1014.2 -0.8 49
2019-08-17 13:00:00 32.1 14 Sudeste 25 Sudeste 0 1014.5 -0.4 49
2019-08-17 12:00:00 31.5 9 Sudeste 22 Sudeste 0 1015 0.3 50
2019-08-17 11:00:00 29.8 8 Nordeste 15 Este 0 1015 0.4 60
2019-08-17 10:00:00 27.1 5 Oeste 10 Oeste 0 1014.9 0.9 67
2019-08-17 09:00:00 23 5 Oeste 15 Oeste 0 1014.7 0.9 72
2019-08-17 08:00:00 19.5 9 Oeste 11 Oeste 0 1014.6 0.7 84
2019-08-17 07:00:00 19.3 8 Sudoeste 10 Oeste 0 1014 -0.4 87
2019-08-17 06:00:00 20.4 7 Sudoeste 10 Sudoeste 0 1013.8 -1 90
2019-08-17 05:00:00 21 5 Oeste 10 Oeste 0 1013.9 -1.4 90
2019-08-17 04:00:00 21.4 5 Oeste 8 Sudoeste 0 1014.4 -1 87
2019-08-17 03:00:00 23 2 Oeste 8 Sudoeste 0 1014.8 -0.4 84
2019-08-17 02:00:00 23.2 5 Noroeste 8 Oeste 0 1015.3 0.4 83
2019-08-17 01:00:00 24.2 3 Oeste 10 Sudoeste 0 1015.4 0.8 81
2019-08-17 00:00:00 24.8 5 Sudoeste 18 Sudoeste 0 1015.2 1.1 78
2019-08-16 23:00:00 25.2 5 Oeste 23 Sudoeste 0 1014.9 1.2 77
2019-08-16 22:00:00 25.5 9 Sudoeste 28 Sur 0 1014.6 0.5 76
2019-08-16 21:00:00 26.3 14 Sudoeste 32 Sur 0 1014.1 -0.6 70
2019-08-16 20:00:00 28.5 15 Sur 32 Sur 0 1013.7 -1.4 53
2019-08-16 19:00:00 29.8 19 Sur 35 Sur 0 1014.1 -1.7 47
2019-08-16 18:00:00 30.6 13 Sur 31 Sur 0 1014.7 -1.5 48
2019-08-16 17:00:00 31.1 15 Sudeste 34 Sur 0 1015.1 -1.5 54
2019-08-16 16:00:00 31.2 17 Sur 30 Sudeste 0 1015.8 -1.4 53
2019-08-16 15:00:00 31.8 13 Sudeste 29 Sudeste 0 1016.2 -1.5 49
2019-08-16 14:00:00 31.6 12 Sudeste 28 Sur 0 1016.6 -0.7 48
2019-08-16 13:00:00 30.1 13 Sudeste 24 Sudeste 0 1017.2 -0.1 57
2019-08-16 12:00:00 29.5 10 Este 20 Este 0 1017.7 0.5 58
2019-08-16 11:00:00 29.2 6 Este 14 Este 0 1017.3 0.4 57
2019-08-16 10:00:00 27.3 0 Calma 11 Oeste 0 1017.3 0.6 63
2019-08-16 09:00:00 22.9 7 Sudoeste 12 Oeste 0 1017.2 0.9 69
2019-08-16 08:00:00 19.4 8 Oeste 12 Sudoeste 0 1016.9 0.3 79
2019-08-16 07:00:00 19 9 Sudoeste 11 Sudoeste 0 1016.7 0.2 79
2019-08-16 06:00:00 19.1 8 Sudoeste 10 Sudoeste 0 1016.3 -0.4 79
2019-08-16 05:00:00 19.6 6 Oeste 11 Oeste 0 1016.6 -0.3 76
2019-08-16 04:00:00 21.1 8 Oeste 10 Oeste 0 1016.5 -0.4 80
2019-08-16 03:00:00 21.5 5 Sudoeste 10 Oeste 0 1016.7 0 81
2019-08-16 02:00:00 22.6 5 Sudoeste 8 Oeste 0 1016.9 0.3 77
2019-08-16 01:00:00 24.3 6 Oeste 13 Sur 0 1016.9 1.3 72
2019-08-16 00:00:00 24.8 6 Sudoeste 13 Sudoeste 0 1016.7 1.6 68
2019-08-15 23:00:00 25.3 3 Sudoeste 18 Sudoeste 0 1016.6 1.8 57
2019-08-15 22:00:00 25.7 10 Sudoeste 26 Sur 0 1015.6 0.5 65
2019-08-15 21:00:00 26.4 11 Sudoeste 27 Sur 0 1015.1 -0.4 62
2019-08-15 20:00:00 28.3 15 Sur 29 Sudoeste 0 1014.8 -1 54
2019-08-15 19:00:00 30 14 Sur 31 Sur 0 1015.1 -1.1 50
2019-08-15 18:00:00 30.9 14 Sur 32 Sur 0 1015.5 -0.9 46
2019-08-15 17:00:00 31.5 15 Sur 31 Sudeste 0 1015.8 -0.7 41
2019-08-15 16:00:00 31.7 16 Sur 31 Sudeste 0 1016.2 -0.7 46
2019-08-15 15:00:00 31.8 15 Sur 32 Sudeste 0 1016.4 -0.8 46
2019-08-15 14:00:00 32.3 18 Sur 30 Sur 0 1016.5 -0.6 41
2019-08-15 13:00:00 32.8 11 Sur 27 Sur 0 1016.9 -0.2 30
2019-08-15 12:00:00 31.3 15 Sur 25 Sudoeste 0 1017.2 0.2 34
2019-08-15 11:00:00 29.5 8 Sudoeste 19 Sudoeste 0 1017.1 0.4 39
2019-08-15 10:00:00 27.2 4 Sudoeste 12 Sudoeste 0 1017.1 0.8 68
2019-08-15 09:00:00 23.4 7 Oeste 11 Noroeste 0 1017 1.1 82
2019-08-15 08:00:00 20.8 6 Sudoeste 9 Sudoeste 0 1016.7 0.9 91
2019-08-15 07:00:00 21.4 0 Calma 4 Sudoeste 0 1016.3 0.3 89
2019-08-15 06:00:00 22.6 2 Oeste 10 Sudoeste 0 1015.9 -0.3 87
2019-08-15 05:00:00 22.9 5 Sudoeste 10 Sudoeste 0 1015.8 -0.8 88
2019-08-15 04:00:00 23.4 5 Sudoeste 11 Oeste 0 1016 -0.6 85
2019-08-15 03:00:00 23.7 5 Sudoeste 12 Sur 0 1016.2 -0.2 84
2019-08-15 02:00:00 24.2 4 Sudoeste 15 Oeste 0 1016.6 0.5 81
2019-08-15 01:00:00 24.8 5 Sudoeste 14 Oeste 0 1016.6 1.1 79
2019-08-15 00:00:00 25.1 8 Sudoeste 24 Sudoeste 0 1016.4 1.3 75
2019-08-14 23:00:00 25.3 8 Sudoeste 22 Oeste 0 1016.1 1.2 72
2019-08-14 22:00:00 25.5 9 Sudoeste 28 Sudoeste 0 1015.5 0.4 69
2019-08-14 21:00:00 26.2 13 Sudoeste 34 Sudoeste 0 1015.1 -0.4 65
2019-08-14 20:00:00 27.8 15 Sur 36 Sur 0 1014.9 -0.9 56
2019-08-14 19:00:00 29 17 Sur 39 Sur 0 1015.1 -1 53
2019-08-14 18:00:00 29.9 19 Sur 36 Sudoeste 0 1015.5 -1.1 50
2019-08-14 17:00:00 30.7 18 Sur 41 Sur 0 1015.8 -1.3 47
2019-08-14 16:00:00 30.9 17 Sur 43 Sur 0 1016.1 -1.5 46
2019-08-14 15:00:00 30.4 23 Sur 38 Sur 0 1016.6 -1.4 46
2019-08-14 14:00:00 30.9 18 Sur 37 Sur 0 1017.1 -1.1 43
2019-08-14 13:00:00 30 18 Sur 33 Sur 0 1017.6 -0.5 45
2019-08-14 12:00:00 29.7 15 Sudoeste 32 Sur 0 1018 0 44
2019-08-14 11:00:00 28.6 13 Sur 21 Sur 0 1018.2 0.4 48
2019-08-14 10:00:00 26.2 6 Sudoeste 11 Sudoeste 0 1018.1 0.5 63
2019-08-14 09:00:00 22.5 5 Sudoeste 10 Sudoeste 0 1018 0.6 75
2019-08-14 08:00:00 20 7 Oeste 11 Oeste 0 1017.8 0.4 84
2019-08-14 07:00:00 19.9 6 Sudoeste 12 Oeste 0 1017.6 0.1 85
2019-08-14 06:00:00 20.4 7 Oeste 10 Oeste 0 1017.4 -0.3 84
2019-08-14 05:00:00 21.1 6 Sudoeste 9 Sudoeste 0 1017.4 -0.7 82
2019-08-14 04:00:00 21.1 7 Oeste 10 Oeste 0 1017.5 -0.5 81
2019-08-14 03:00:00 21.8 6 Oeste 9 Oeste 0 1017.7 -0.1 79
2019-08-14 02:00:00 22.1 4 Oeste 10 Oeste 0 1018.1 0.5 74
2019-08-14 01:00:00 22.9 6 Oeste 9 Oeste 0 1018 1 70
2019-08-14 00:00:00 23.1 6 Sudoeste 14 Sur 0 1017.8 1.2 69
2019-08-13 23:00:00 23.8 5 Sur 12 Sur 0 1017.6 1.6 66
2019-08-13 22:00:00 24.6 6 Sur 16 Sur 0 1017 1.1 62
2019-08-13 21:00:00 25.7 10 Sur 18 Sudeste 0 1016.6 0.4 57
2019-08-13 20:00:00 27.3 11 Sudeste 22 Sudeste 0 1016 -0.5 53
2019-08-13 19:00:00 28.9 9 Sudeste 26 Este 0 1015.9 -1 46
2019-08-13 18:00:00 28.9 9 Sudeste 23 Este 0 1016.2 -1.1 45
2019-08-13 17:00:00 29.1 10 Este 24 Este 0 1016.5 -1.1 46
2019-08-13 16:00:00 29.3 10 Este 21 Este 0 1016.9 -0.9 44
2019-08-13 15:00:00 29.9 9 Este 27 Nordeste 0 1017.3 -0.5 43
2019-08-13 14:00:00 28.9 9 Este 25 Sudeste 0 1017.6 -0.1 45
2019-08-13 13:00:00 29.1 12 Este 22 Este 0 1017.8 0.3 45
2019-08-13 12:00:00 29.2 9 Este 23 Este 0 1017.8 0.8 44
2019-08-13 11:00:00 27.1 11 Este 21 Este 0 1017.7 1.4 43
2019-08-13 10:00:00 26.4 8 Este 24 Este 0 1017.5 1.5 58
2019-08-13 09:00:00 25.4 9 Este 25 Este 0 1017 0.9 62
2019-08-13 08:00:00 25 12 Nordeste 24 Nordeste 0 1016.3 0.4 67
2019-08-13 07:00:00 24.3 12 Nordeste 25 Nordeste 0.6 1016 -0.1 68
2019-08-13 06:00:00 24.9 12 Nordeste 27 Norte 0 1016.1 -0.6 70
2019-08-13 05:00:00 25.2 16 Norte 32 Nordeste 0 1015.9 -0.9 69
2019-08-13 04:00:00 25.3 17 Norte 30 Norte 0 1016.1 -0.4 66
2019-08-13 03:00:00 25.2 11 Norte 24 Norte 0 1016.7 0.4 69
2019-08-13 02:00:00 25.3 11 Norte 21 Norte 0 1016.8 0.9 69
2019-08-13 01:00:00 25.2 6 Norte 19 Nordeste 0 1016.5 1.5 70
2019-08-13 00:00:00 25.7 10 Nordeste 22 Norte 0 1016.3 2.3 69
2019-08-12 23:00:00 25.6 13 Nordeste 26 Norte 0 1015.9 2.5 71
2019-08-12 22:00:00 25.6 13 Nordeste 26 Norte 0 1015 1.8 70
2019-08-12 21:00:00 25.9 11 Nordeste 26 Nordeste 0 1014 0.6 71
2019-08-12 20:00:00 26.1 14 Nordeste 30 Nordeste 0 1013.4 -0.5 70
2019-08-12 19:00:00 26.4 15 Nordeste 29 Nordeste 0 1013.2 -0.8 70
2019-08-12 18:00:00 26.8 16 Nordeste 28 Nordeste 0 1013.4 -1 68
2019-08-12 17:00:00 26.6 16 Nordeste 35 Nordeste 0 1013.9 -0.6 66
2019-08-12 16:00:00 26.1 18 Norte 37 Norte 0 1014 -0.3 69
2019-08-12 15:00:00 27.1 19 Norte 35 Norte 0 1014.4 0.6 62
2019-08-12 14:00:00 28.3 22 Norte 40 Nordeste 0 1014.5 1.4 56
2019-08-12 13:00:00 27.8 22 Norte 53 Norte 0 1014.3 1.8 57
2019-08-12 12:00:00 28.7 26 Norte 48 Nordeste 0 1013.8 2.2 55
2019-08-12 11:00:00 28.8 22 Norte 42 Norte 0 1013.1 2 56
2019-08-12 10:00:00 27.6 22 Norte 41 Norte 0 1012.5 2.2 63
2019-08-12 09:00:00 27.4 14 Noroeste 29 Norte 0 1011.6 1.4 67
2019-08-12 08:00:00 26.3 12 Noroeste 32 Noroeste 0 1011.1 1.5 76
2019-08-12 07:00:00 26.5 13 Norte 29 Norte 0 1010.3 0.9 83
2019-08-12 06:00:00 26.4 11 Noroeste 46 Norte 0 1010.2 0.2 81
2019-08-12 05:00:00 26.5 19 Noroeste 44 Norte 0 1009.6 -1.3 83
2019-08-12 04:00:00 26.5 20 Noroeste 44 Noroeste 0 1009.4 -1.6 82
2019-08-12 03:00:00 25.6 8 Oeste 27 Noroeste 0 1010 -1.4 85
2019-08-12 02:00:00 25.5 3 Sudoeste 13 Sudoeste 0 1010.9 -0.4 81
2019-08-12 01:00:00 26.3 10 Sudoeste 18 Sudoeste 0 1011 0.3 83
2019-08-12 00:00:00 26.8 5 Oeste 22 Oeste 0 1011.4 1.4 79
2019-08-11 23:00:00 27.2 10 Oeste 21 Oeste 0 1011.3 1.7 72
2019-08-11 22:00:00 27.5 6 Oeste 17 Sudoeste 0 1010.7 1.1 71
2019-08-11 21:00:00 28.1 9 Sudoeste 17 Oeste 0 1010 -0.2 68
2019-08-11 20:00:00 29.5 10 Sudoeste 28 Sudoeste 0 1009.6 -0.9 63
2019-08-11 19:00:00 30.9 15 Sudoeste 30 Sur 0 1009.6 -1.5 59
2019-08-11 18:00:00 32.4 15 Sur 30 Sur 0 1010.2 -1.4 53
2019-08-11 17:00:00 33.1 16 Sur 26 Sudeste 0 1010.5 -1.1 49
2019-08-11 16:00:00 33.5 13 Sudeste 24 Sudeste 0 1011.1 -1.1 49
2019-08-11 15:00:00 31.6 10 Este 24 Sudeste 0 1011.6 -0.9 55
2019-08-11 14:00:00 33.5 14 Norte 26 Nordeste 0 1011.6 -1.1 45
2019-08-11 13:00:00 32.8 12 Norte 27 Noroeste 0 1012.2 -0.7 48
2019-08-11 12:00:00 30.9 16 Norte 27 Norte 0 1012.5 -0.3 57
2019-08-11 11:00:00 30.2 16 Norte 29 Norte 0 1012.7 0.4 62
2019-08-11 10:00:00 27.4 6 Noroeste 23 Norte 0 1012.9 1.3 76
2019-08-11 09:00:00 26.7 12 Norte 28 Norte 0 1012.8 0.9 81
2019-08-11 08:00:00 26.4 14 Norte 24 Noroeste 0 1012.3 0.5 83
2019-08-11 07:00:00 26.2 14 Norte 25 Norte 0 1011.6 -1 85
2019-08-11 06:00:00 26.2 13 Norte 21 Norte 0 1011.9 -1.5 85
2019-08-11 05:00:00 26 7 Noroeste 21 Norte 0 1011.8 -1.3 85
2019-08-11 04:00:00 26.2 9 Norte 21 Noroeste 0 1012.6 -0.8 85
2019-08-11 03:00:00 26.4 7 Noroeste 22 Noroeste 0 1013.4 -0.1 84
2019-08-11 02:00:00 26.5 8 Norte 19 Norte 0 1013.1 -0.4 85
2019-08-11 01:00:00 26.7 8 Noroeste 18 Noroeste 0 1013.4 0.4 85
2019-08-11 00:00:00 26.7 7 Norte 18 Norte 0 1013.5 0.6 85
2019-08-10 23:00:00 27 5 Noroeste 10 Noroeste 0 1013.5 0.9 83
2019-08-10 22:00:00 27.4 2 Nordeste 6 Norte 0 1013 -0.1 80
2019-08-10 21:00:00 28.3 3 Este 11 Nordeste 0 1012.9 -0.6 78
2019-08-10 20:00:00 29.3 5 Nordeste 14 Nordeste 0 1012.6 -1.1 70
2019-08-10 19:00:00 30 7 Nordeste 17 Nordeste 0 1013.1 -1 66
2019-08-10 18:00:00 30.5 11 Nordeste 25 Nordeste 0 1013.5 -1 67
2019-08-10 17:00:00 32.2 11 Nordeste 31 Nordeste 0 1013.7 -0.9 57
2019-08-10 16:00:00 33 17 Norte 31 Norte 0 1014.1 -1.1 53
2019-08-10 15:00:00 34.3 16 Norte 33 Norte 0 1014.5 -0.9 41
2019-08-10 14:00:00 33.7 21 Norte 36 Norte 0 1014.6 -0.5 37
2019-08-10 13:00:00 33.1 23 Norte 37 Noroeste 0 1015.2 0.6 38
2019-08-10 12:00:00 33.4 20 Norte 37 Norte 0 1015.4 1.8 36
2019-08-10 11:00:00 32.9 19 Norte 37 Norte 0 1015.1 2.3 36
2019-08-10 10:00:00 31.8 25 Norte 44 Norte 0 1014.6 2.3 43
2019-08-10 09:00:00 31.7 16 Noroeste 40 Noroeste 0 1013.6 2.1 34
2019-08-10 08:00:00 28.8 12 Noroeste 30 Noroeste 0 1012.8 1.4 47
2019-08-10 07:00:00 23.7 3 Oeste 10 Nordeste 0 1012.3 1.1 66
2019-08-10 06:00:00 25.3 3 Sudoeste 16 Sudoeste 0 1011.5 0.3 58
2019-08-10 05:00:00 25.3 9 Oeste 14 Oeste 0 1011.4 0.2 73
2019-08-10 04:00:00 25.1 9 Oeste 16 Sudoeste 0 1011.2 -0.2 59
2019-08-10 03:00:00 26.1 7 Oeste 15 Oeste 0 1011.2 -0.1 67
2019-08-10 02:00:00 26.2 8 Oeste 15 Oeste 0 1011.2 0.2 61
2019-08-10 01:00:00 26.4 8 Oeste 13 Sudoeste 0 1011.4 1.2 64
2019-08-10 00:00:00 27.4 12 Oeste 18 Sudoeste 0 1011.3 1.7 70
2019-08-09 23:00:00 28.4 6 Oeste 21 Sudoeste 0 1011 1.5 57
2019-08-09 22:00:00 29.5 10 Sudoeste 23 Sudoeste 0 1010.2 0.3 38
2019-08-09 21:00:00 30.5 9 Sudoeste 24 Sudoeste 0 1009.6 -0.5 41
2019-08-09 20:00:00 32.8 14 Sudoeste 23 Sudoeste 0 1009.5 -0.9 39
2019-08-09 19:00:00 34.4 12 Sudoeste 26 Sudoeste 0 1009.9 -0.9 36
2019-08-09 18:00:00 36.2 13 Sudoeste 28 Sudoeste 0 1010.1 -1.2 18
2019-08-09 17:00:00 35.7 12 Sudoeste 25 Sur 0 1010.4 -1.1 34
2019-08-09 16:00:00 36.9 11 Sudoeste 24 Sudoeste 0 1010.8 -0.8 31
2019-08-09 15:00:00 37.7 6 Sur 24 Sudoeste 0 1011.3 -0.3 29
2019-08-09 14:00:00 37.6 9 Sur 24 Sur 0 1011.5 -0.1 22
2019-08-09 13:00:00 37.6 6 Sur 17 Nordeste 0 1011.6 0.1 20
2019-08-09 12:00:00 34 8 Nordeste 13 Nordeste 0 1011.6 0.3 34
2019-08-09 11:00:00 33.3 3 Nordeste 7 Oeste 0 1011.6 0.3 38
2019-08-09 10:00:00 29.2 2 Nordeste 10 Oeste 0 1011.5 0.7 53
2019-08-09 09:00:00 23.8 3 Sudoeste 13 Sudoeste 0 1011.3 0.7 66
2019-08-09 08:00:00 20.4 9 Sudoeste 14 Sudoeste 0 1011.3 0.5 77
2019-08-09 07:00:00 20.3 10 Sudoeste 13 Sudoeste 0 1010.8 -0.1 81
2019-08-09 06:00:00 20.7 8 Sudoeste 11 Sudoeste 0 1010.6 -0.4 84
2019-08-09 05:00:00 21.5 7 Sudoeste 12 Sudoeste 0 1010.8 -0.1 85
2019-08-09 04:00:00 22.4 4 Oeste 8 Sudoeste 0 1010.9 0.3 85
2019-08-09 03:00:00 24 4 Sur 10 Oeste 0 1011 0.5 77
2019-08-09 02:00:00 26.2 5 Oeste 16 Sudoeste 0 1010.9 0.6 61
2019-08-09 01:00:00 27.5 9 Sudoeste 19 Sudoeste 0 1010.6 0.8 55
2019-08-09 00:00:00 27.8 12 Sudoeste 28 Sudoeste 0 1010.5 1 59
2019-08-08 23:00:00 28.1 13 Sudoeste 26 Sudoeste 0 1010.3 0.7 53
2019-08-08 22:00:00 28.2 6 Oeste 34 Oeste 0 1009.8 0 58
2019-08-08 21:00:00 29.2 9 Oeste 27 Sudoeste 0 1009.5 -0.6 54
2019-08-08 20:00:00 30.8 14 Sudoeste 27 Oeste 0 1009.6 -0.9 50
2019-08-08 19:00:00 32.5 14 Sudoeste 32 Sur 0 1009.8 -1 41
2019-08-08 18:00:00 33.9 15 Sudoeste 28 Sudoeste 0 1010.1 -1.1 34
2019-08-08 17:00:00 35.4 14 Sur 26 Sur 0 1010.5 -1.2 37
2019-08-08 16:00:00 35.3 12 Sur 24 Sudeste 0 1010.8 -1.2 41
2019-08-08 15:00:00 35.4 10 Sur 21 Sur 0 1011.2 -0.8 44
2019-08-08 14:00:00 35.2 8 Sur 20 Nordeste 0 1011.7 0 42
2019-08-08 13:00:00 33.4 9 Este 19 Este 0 1012 0.5 39
2019-08-08 12:00:00 31.5 7 Nordeste 21 Este 0 1012 0.8 45
2019-08-08 11:00:00 30.7 8 Este 17 Este 0 1011.7 0.9 58
2019-08-08 10:00:00 29.8 5 Sudeste 12 Sudeste 0 1011.5 1.1 55
2019-08-08 09:00:00 26.3 3 Sur 6 Sudeste 0 1011.2 1.1 76
2019-08-08 08:00:00 23.9 3 Sudoeste 8 Sudoeste 0 1010.8 0.6 87
2019-08-08 07:00:00 24.4 3 Oeste 23 Oeste 0 1010.4 0.1 88
2019-08-08 06:00:00 25.7 13 Noroeste 31 Norte 0 1010.1 -0.2 85
2019-08-08 05:00:00 25.7 9 Noroeste 24 Noroeste 0 1010.2 -0.3 84
2019-08-08 04:00:00 26.3 10 Noroeste 27 Noroeste 0 1010.3 -0.7 83
2019-08-08 03:00:00 25.7 13 Noroeste 29 Noroeste 0 1010.3 -0.5 85
2019-08-08 02:00:00 25.7 5 Oeste 8 Oeste 0 1010.5 0.4 81
2019-08-08 01:00:00 26.4 3 Oeste 18 Noroeste 0 1011 1.7 75
2019-08-08 00:00:00 27.1 3 Oeste 17 Sudoeste 0 1010.8 2 56
2019-08-07 23:00:00 28.7 12 Sudoeste 24 Sudoeste 0 1010.1 1.7 50
2019-08-07 22:00:00 27.9 9 Sudoeste 17 Sudoeste 0 1009.3 0.8 66
2019-08-07 21:00:00 29 7 Sur 15 Sudoeste 0 1008.8 0.2 56
2019-08-07 20:00:00 30.3 5 Sur 20 Sudoeste 0 1008.4 -0.7 42
2019-08-07 19:00:00 31.5 8 Sudoeste 22 Sudoeste 0 1008.5 -1.2 46
2019-08-07 18:00:00 32.2 8 Sudoeste 17 Sur 0 1008.6 -1 54
2019-08-07 17:00:00 31.7 10 Sudeste 19 Sudeste 0 1009.1 -0.8 52
2019-08-07 16:00:00 29.9 10 Nordeste 19 Nordeste 0 1009.7 -0.5 65
2019-08-07 15:00:00 30.1 8 Nordeste 15 Nordeste 0 1009.6 -0.3 63
2019-08-07 14:00:00 29.3 7 Este 19 Este 0 1009.9 0.7 67
2019-08-07 13:00:00 30.4 9 Este 24 Este 0 1010.2 1.4 64
2019-08-07 12:00:00 30.7 10 Este 21 Este 0 1009.9 1.4 61
2019-08-07 11:00:00 30.7 9 Oeste 16 Norte 0 1009.2 1.2 63
2019-08-07 10:00:00 27.7 0 Calma 6 Oeste 0 1008.8 1.1 78
2019-08-07 09:00:00 25 4 Oeste 10 Sudoeste 0 1008.5 1 90
2019-08-07 08:00:00 24 5 Oeste 10 Oeste 0 1008 0.5 92
2019-08-07 07:00:00 24.2 6 Oeste 9 Sudoeste 0 1007.7 0.1 91
2019-08-07 06:00:00 25.2 2 Sudoeste 6 Noroeste 0 1007.5 -0.5 89
2019-08-07 05:00:00 24.9 4 Sudoeste 6 Sur 0 1007.5 -0.9 91
2019-08-07 04:00:00 24.8 2 Este 7 Sur 0 1007.6 -1.1 89
2019-08-07 03:00:00 25.1 5 Sudoeste 13 Norte 0 1008 -1.1 86
2019-08-07 02:00:00 25.7 7 Sudoeste 20 Sudoeste 0 1008.4 -0.3 88
2019-08-07 01:00:00 25.9 6 Sudoeste 19 Oeste 0 1008.7 0.5 87
2019-08-07 00:00:00 26.1 13 Sudoeste 26 Sudoeste 0 1009.1 1.4 86
2019-08-06 23:00:00 26.2 7 Sudoeste 22 Sudoeste 0 1008.7 1.2 83
2019-08-06 22:00:00 26.5 10 Sudoeste 22 Oeste 0 1008.2 0.6 80
2019-08-06 21:00:00 27.1 13 Sudoeste 26 Sudoeste 0 1007.7 -0.8 70
2019-08-06 20:00:00 29.9 12 Sudoeste 24 Sudoeste 0 1007.5 -1.5 61
2019-08-06 19:00:00 31.7 12 Sudoeste 21 Sudoeste 0 1007.6 -2.1 55
2019-08-06 18:00:00 32.8 10 Sudoeste 24 Sudoeste 0 1008.5 -1.8 53
2019-08-06 17:00:00 32 14 Sudoeste 29 Sudoeste 0 1009 -2 55
2019-08-06 16:00:00 33.6 13 Sudoeste 24 Sudoeste 0 1009.7 -1.7 50
2019-08-06 15:00:00 33 12 Sudoeste 26 Sudoeste 0 1010.3 -1.5 51
2019-08-06 14:00:00 33.2 12 Sur 24 Sudoeste 0 1011 -0.9 50
2019-08-06 13:00:00 31.9 16 Sur 28 Sur 0 1011.4 -0.4 53
2019-08-06 12:00:00 30.9 12 Sur 24 Sur 0 1011.8 0.4 55
2019-08-06 11:00:00 29.4 9 Sur 18 Sur 0 1011.9 0.9 63
2019-08-06 10:00:00 28.5 3 Sudeste 8 Sudeste 0 1011.8 0.9 68
2019-08-06 09:00:00 26 3 Sudoeste 10 Sudoeste 0 1011.4 0.7 81
2019-08-06 08:00:00 24.4 6 Oeste 13 Oeste 0 1011 0 88
2019-08-06 07:00:00 23.4 4 Sudoeste 10 Sudoeste 0 1010.9 -0.5 90
2019-08-06 06:00:00 23.3 4 Sudoeste 12 Sudoeste 0 1010.7 -0.9 89
2019-08-06 05:00:00 23.8 4 Oeste 7 Oeste 0 1011 -0.9 89
2019-08-06 04:00:00 23.5 5 Oeste 9 Sudoeste 0 1011.4 -0.8 89
2019-08-06 03:00:00 24 3 Sudoeste 5 Sudoeste 0 1011.6 -0.4 87
2019-08-06 02:00:00 24.7 2 Sur 9 Sudoeste 0 1011.9 0 84
2019-08-06 01:00:00 25.2 6 Sudoeste 10 Sudoeste 0 1012.2 1.4 85
2019-08-06 00:00:00 25.6 6 Oeste 10 Oeste 0 1012 1.8 84
2019-08-05 23:00:00 25.7 4 Sudoeste 8 Sur 0 1011.9 1.6 80
2019-08-05 22:00:00 26.7 4 Sur 16 Sudeste 0 1010.8 0.3 73
2019-08-05 21:00:00 28.2 8 Sudeste 18 Sudeste 0 1010.2 -0.7 64
2019-08-05 20:00:00 29.6 7 Sudeste 20 Sudeste 0 1010.3 -1.1 59
2019-08-05 19:00:00 30.9 9 Este 22 Este 0 1010.5 -1.6 57
2019-08-05 18:00:00 31.1 10 Este 22 Este 0 1010.9 -1.5 54
2019-08-05 17:00:00 31.5 9 Este 19 Nordeste 0 1011.4 -1.6 53
2019-08-05 16:00:00 31.4 9 Este 23 Nordeste 0 1012.1 -1.1 57
2019-08-05 15:00:00 31.6 14 Norte 27 Nordeste 0 1012.4 -1.1 54
2019-08-05 14:00:00 30.4 8 Nordeste 24 Norte 0 1013 -0.6 57
2019-08-05 13:00:00 31 14 Norte 25 Nordeste 0 1013.2 -0.4 54
2019-08-05 12:00:00 30.1 16 Norte 24 Norte 0 1013.5 0.3 58
2019-08-05 11:00:00 29.8 4 Noroeste 12 Sudoeste 0 1013.6 1 59
2019-08-05 10:00:00 27.4 6 Sudoeste 12 Sudoeste 0 1013.6 1.4 68
2019-08-05 09:00:00 25.2 4 Sudoeste 14 Oeste 0 1013.2 1 79
2019-08-05 08:00:00 23.1 5 Sudoeste 10 Sudoeste 0 1012.6 0 87
2019-08-05 07:00:00 22.7 6 Sudoeste 10 Oeste 0 1012.2 -0.3 89
2019-08-05 06:00:00 22.5 5 Sudoeste 15 Sudoeste 0 1012.2 -0.8 89
2019-08-05 05:00:00 22.4 6 Sudoeste 12 Sudoeste 0 1012.6 -1 89
2019-08-05 04:00:00 23.1 4 Oeste 13 Noroeste 0 1012.5 -1 89
2019-08-05 03:00:00 23.3 0 Calma 6 Sudoeste 0 1013 0 87
2019-08-05 02:00:00 24.5 4 Oeste 8 Oeste 0 1013.6 0.9 86
2019-08-05 01:00:00 24.4 5 Sudoeste 10 Oeste 0 1013.5 1.6 83
2019-08-05 00:00:00 24.5 8 Sudoeste 14 Sudoeste 0 1013 1.9 82
2019-08-04 23:00:00 24.9 6 Sudoeste 17 Sudoeste 0 1012.7 1.7 75
2019-08-04 22:00:00 25.8 8 Sur 21 Sudoeste 0 1011.9 0.7 70
2019-08-04 21:00:00 26.9 8 Sur 20 Sur 0 1011.1 -0.2 63
2019-08-04 20:00:00 28.7 12 Sur 23 Sudoeste 0 1011 -0.3 55
2019-08-04 19:00:00 30.5 10 Sur 28 Sur 0 1011.2 -0.4 46
2019-08-04 18:00:00 31.5 12 Sudeste 25 Sudeste 0 1011.3 -1 45
2019-08-04 17:00:00 32.8 13 Sur 27 Sudeste 0 1011.3 -1.6 44
2019-08-04 16:00:00 33.8 13 Sudeste 27 Sur 0 1011.6 -1.7 44
2019-08-04 15:00:00 32 15 Sudoeste 30 Sur 0 1012.3 -1.3 42
2019-08-04 14:00:00 32 14 Sudoeste 27 Sur 0 1012.9 -0.8 46
2019-08-04 13:00:00 31.3 10 Sur 28 Sur 0 1013.3 0 52
2019-08-04 12:00:00 30.5 12 Sur 21 Sudeste 0 1013.6 0.8 54
2019-08-04 11:00:00 29.2 6 Este 15 Este 0 1013.7 1.5 60
2019-08-04 10:00:00 27.9 5 Sudeste 11 Sur 0 1013.3 1.2 61
2019-08-04 09:00:00 24.2 5 Sudoeste 16 Oeste 0 1012.8 0.8 63
2019-08-04 08:00:00 19.5 9 Sudoeste 11 Sudoeste 0 1012.2 0.5 68
2019-08-04 07:00:00 19.7 4 Sudoeste 8 Sudoeste 0 1012.1 0.2 64
2019-08-04 06:00:00 20.3 6 Sudoeste 11 Oeste 0 1012 -0.1 63
2019-08-04 05:00:00 20.6 4 Sudoeste 8 Sur 0 1011.7 -0.8 62
2019-08-04 04:00:00 23 3 Oeste 17 Oeste 0 1011.9 -0.7 56
2019-08-04 03:00:00 23.6 5 Sudoeste 12 Sudoeste 0 1012.1 -0.6 60
2019-08-04 02:00:00 23.9 5 Sudoeste 14 Sudoeste 0 1012.5 0.1 66
2019-08-04 01:00:00 24.2 9 Sudoeste 15 Sudoeste 0 1012.6 1.1 73
2019-08-04 00:00:00 24 7 Sudoeste 17 Sudoeste 0 1012.7 1.4 77
2019-08-03 23:00:00 24.8 8 Sudoeste 18 Sudoeste 0 1012.4 1.2 82
2019-08-03 22:00:00 25.2 9 Sur 21 Sur 0 1011.5 0 73
2019-08-03 21:00:00 26.2 9 Sur 21 Sur 0 1011.3 -0.7 64
2019-08-03 20:00:00 27.9 9 Sur 21 Sudeste 0 1011.2 -1.3 55
2019-08-03 19:00:00 30.1 12 Sur 23 Sudeste 0 1011.5 -1.8 41
2019-08-03 18:00:00 31.6 9 Sur 19 Sudeste 0 1012 -1.8 35
2019-08-03 17:00:00 31.8 8 Sudeste 23 Este 0 1012.5 -1.7 33
2019-08-03 16:00:00 30.6 10 Este 24 Este 0 1013.3 -1.3 51
2019-08-03 15:00:00 29.5 12 Este 24 Este 0 1013.8 -0.6 58
2019-08-03 14:00:00 29.6 11 Nordeste 23 Nordeste 0 1014.2 -0.3 59
2019-08-03 13:00:00 30.5 7 Este 19 Este 0 1014.6 0.3 51
2019-08-03 12:00:00 30.3 5 Nordeste 21 Norte 0 1014.4 0.4 48
2019-08-03 11:00:00 29.6 8 Nordeste 19 Nordeste 0 1014.5 0.8 56
2019-08-03 10:00:00 27.9 8 Norte 18 Norte 0 1014.3 0.9 64
2019-08-03 09:00:00 24.8 6 Sudoeste 13 Oeste 0 1014 0.9 74
2019-08-03 08:00:00 22.5 7 Sudoeste 14 Oeste 0 1013.7 0.4 81
2019-08-03 07:00:00 22.1 7 Sudoeste 14 Sudoeste 0 1013.4 -0.2 85
2019-08-03 06:00:00 22.2 7 Sudoeste 15 Sudoeste 0 1013.1 -0.8 86
2019-08-03 05:00:00 22.2 8 Sudoeste 12 Sudoeste 0 1013.3 -0.9 85
2019-08-03 04:00:00 22.4 8 Sudoeste 12 Sudoeste 0 1013.6 -0.7 83
2019-08-03 03:00:00 22.8 6 Oeste 11 Oeste 0 1013.9 -0.3 82
2019-08-03 02:00:00 23 7 Sudoeste 10 Sudoeste 0 1014.2 0.4 83
2019-08-03 01:00:00 23.7 4 Oeste 12 Sudoeste 0 1014.3 1.3 79
2019-08-03 00:00:00 25 8 Noroeste 18 Noroeste 0 1014.2 2.1 75
2019-08-02 23:00:00 25.2 7 Norte 21 Norte 0 1013.8 1.9 73
2019-08-02 22:00:00 25.6 9 Norte 23 Nordeste 0 1013 0.9 70
2019-08-02 21:00:00 26.4 14 Norte 27 Norte 0 1012.1 -0.8 64
2019-08-02 20:00:00 28 11 Nordeste 23 Nordeste 0 1011.9 -1.2 56
2019-08-02 19:00:00 28.9 12 Nordeste 21 Nordeste 0 1012.1 -1.5 55
2019-08-02 18:00:00 29.3 10 Nordeste 23 Nordeste 0 1012.9 -1 55
2019-08-02 17:00:00 29.8 11 Nordeste 21 Norte 0 1013.1 -1 50
2019-08-02 16:00:00 30.4 13 Nordeste 28 Nordeste 0 1013.6 -0.5 50
2019-08-02 15:00:00 29.5 18 Nordeste 28 Nordeste 0 1013.9 0.1 52
2019-08-02 14:00:00 30 19 Nordeste 31 Nordeste 0 1014.1 0.7 49
2019-08-02 13:00:00 30.5 13 Norte 33 Norte 0 1014.1 0.8 50
2019-08-02 12:00:00 29 19 Norte 35 Norte 0 1013.8 0.9 53
2019-08-02 11:00:00 28.3 14 Norte 32 Norte 0 1013.4 0.9 60
2019-08-02 10:00:00 26.6 14 Noroeste 29 Noroeste 0 1013.3 1.4 68
2019-08-02 09:00:00 25.2 10 Noroeste 23 Noroeste 0 1012.9 1.1 73
2019-08-02 08:00:00 23.9 8 Noroeste 27 Noroeste 0 1012.5 0.7 79
2019-08-02 07:00:00 23.6 12 Noroeste 26 Noroeste 0 1011.9 0.2 81
2019-08-02 06:00:00 23.5 4 Norte 19 Oeste 0 1011.8 -0.4 81
2019-08-02 05:00:00 23.2 6 Noroeste 19 Noroeste 0 1011.8 -0.8 83
2019-08-02 04:00:00 21.5 7 Sudoeste 18 Oeste 0 1011.7 -0.7 84
2019-08-02 03:00:00 21.5 6 Oeste 10 Sudoeste 0 1012.2 -0.2 85
2019-08-02 02:00:00 21.2 3 Oeste 8 Sur 0 1012.6 0.9 84
2019-08-02 01:00:00 22.3 4 Oeste 9 Sudoeste 0 1012.4 1.4 80
2019-08-02 00:00:00 23 6 Sudoeste 10 Oeste 0 1012.4 2.3 78
2019-08-01 23:00:00 23.7 5 Oeste 13 Noroeste 0 1011.7 1.8 71
2019-08-01 22:00:00 24.9 8 Norte 22 Norte 0 1011 1 70
2019-08-01 21:00:00 25.8 10 Norte 29 Norte 0 1010.1 0.1 64
2019-08-01 20:00:00 27 13 Norte 27 Norte 0 1009.9 -0.6 61
2019-08-01 19:00:00 28.1 15 Norte 27 Nordeste 0 1010 -0.8 55
2019-08-01 18:00:00 28.7 14 Norte 35 Norte 0 1010 -2.6 54
2019-08-01 17:00:00 27.4 15 Nordeste 32 Norte 0 1010.5 -1.2 62
2019-08-01 16:00:00 27.4 21 Norte 34 Norte 0 1010.8 -1.6 60
2019-08-01 15:00:00 27.8 12 Norte 33 Norte 0 1012.6 0.7 59
2019-08-01 14:00:00 29.2 14 Norte 27 Norte 0 1011.7 -0.3 55
2019-08-01 13:00:00 28.3 14 Norte 34 Nordeste 0 1012.4 0.2 59
2019-08-01 12:00:00 28.1 20 Norte 39 Norte 0 1011.9 0.1 59
2019-08-01 11:00:00 27.8 18 Norte 31 Norte 0 1012 0.1 60
2019-08-01 10:00:00 26.8 16 Norte 28 Norte 0 1012.2 0.9 65
2019-08-01 09:00:00 26 15 Norte 29 Noroeste 0 1011.8 0.3 69
2019-08-01 08:00:00 24.6 15 Norte 31 Norte 0 1011.9 0.1 77
2019-08-01 07:00:00 24.5 17 Norte 32 Norte 0 1011.3 -0.4 79
2019-08-01 06:00:00 24.5 16 Norte 32 Noroeste 0 1011.5 -1 78
2019-08-01 05:00:00 24.4 15 Norte 32 Norte 0 1011.8 -1.5 73
2019-08-01 04:00:00 24.6 18 Norte 31 Nordeste 0 1011.7 -1 73
2019-08-01 03:00:00 24.7 15 Norte 26 Norte 0 1012.5 -1.2 72
2019-08-01 02:00:00 24.7 17 Norte 27 Norte 0 1013.3 -1.2 74
2019-08-01 01:00:00 24.9 19 Norte 30 Norte 0 1012.7 -0.7 72
2019-08-01 00:00:00 25.1 11 Norte 23 Norte 0 1013.7 1 70
2019-07-31 23:00:00 25.3 9 Nordeste 31 Norte 0 1014.5 2.5 66
2019-07-31 22:00:00 25.4 12 Norte 26 Norte 0 1013.4 0.2 67
2019-07-31 21:00:00 25.7 17 Norte 34 Nordeste 0 1012.7 -1.6 67
2019-07-31 20:00:00 26.5 20 Nordeste 35 Nordeste 0 1012 -1.9 63
2019-07-31 19:00:00 26.8 16 Nordeste 30 Nordeste 0 1013.2 -1.8 62
2019-07-31 18:00:00 28.5 12 Nordeste 21 Nordeste 0 1014.3 -0.2 56
2019-07-31 17:00:00 27.3 14 Nordeste 26 Este 0 1013.9 -0.9 59
2019-07-31 16:00:00 27.5 10 Nordeste 28 Este 0 1015 -1 60
2019-07-31 15:00:00 29 15 Nordeste 26 Nordeste 0 1014.5 -1.6 51
2019-07-31 14:00:00 28.6 9 Este 21 Este 0 1014.8 -0.1 56
2019-07-31 13:00:00 29.4 9 Nordeste 19 Nordeste 0 1016 0.4 55
2019-07-31 12:00:00 28.7 7 Este 22 Este 0 1016.1 1.8 59
2019-07-31 11:00:00 26.1 10 Nordeste 20 Nordeste 0 1014.9 0.7 70
2019-07-31 10:00:00 26 6 Este 19 Nordeste 0 1015.6 0.8 73
2019-07-31 09:00:00 26 14 Nordeste 27 Nordeste 0 1014.3 -0.5 75
2019-07-31 08:00:00 25.2 10 Norte 21 Norte 0 1014.2 -0.1 82
2019-07-31 07:00:00 24.8 10 Norte 19 Norte 0 1014.8 0.1 82
2019-07-31 06:00:00 24.6 5 Norte 19 Norte 0 1014.8 0.6 83
2019-07-31 05:00:00 24.1 5 Norte 13 Nordeste 0 1014.3 0.2 84
2019-07-31 04:00:00 24.2 4 Noroeste 15 Noroeste 0 1014.7 0.2 84
2019-07-31 03:00:00 24.5 8 Norte 15 Norte 0 1014.2 0.2 85
2019-07-31 02:00:00 24.6 9 Norte 19 Noroeste 0 1014.1 0.3 83
2019-07-31 01:00:00 24.7 8 Norte 18 Norte 0 1014.5 1.8 80
2019-07-31 00:00:00 24.4 4 Norte 8 Norte 0 1014 1.7 78
2019-07-30 23:00:00 24.1 4 Norte 6 Norte 0 1013.8 1.7 75
2019-07-30 22:00:00 25 2 Nordeste 6 Este 0 1012.7 0.5 68
2019-07-30 21:00:00 26.1 4 Este 14 Este 0 1012.3 -0.2 66
2019-07-30 20:00:00 27.3 8 Este 21 Este 0 1012.1 -0.5 61
2019-07-30 19:00:00 28.3 13 Este 23 Este 0 1012.2 0 62
2019-07-30 18:00:00 27.7 11 Este 23 Este 0 1012.5 0.3 65
2019-07-30 17:00:00 28.9 11 Este 29 Norte 0 1012.6 0.2 62
2019-07-30 16:00:00 31.8 16 Norte 41 Noroeste 0 1012.2 -0.3 52
2019-07-30 15:00:00 31.7 21 Norte 44 Norte 0 1012.2 -0.4 51
2019-07-30 14:00:00 32.1 18 Noroeste 38 Noroeste 0 1012.4 -0.1 49
2019-07-30 13:00:00 31.4 17 Noroeste 39 Norte 0 1012.5 0.2 50
2019-07-30 12:00:00 29.8 18 Noroeste 33 Noroeste 0 1012.6 0.8 58
2019-07-30 11:00:00 29.3 17 Noroeste 30 Noroeste 0 1012.5 1.3 60
2019-07-30 10:00:00 28.5 17 Noroeste 29 Noroeste 0 1012.3 1.9 64
2019-07-30 09:00:00 24.7 6 Sudoeste 14 Sudoeste 0 1011.8 1.7 70
2019-07-30 08:00:00 22.7 5 Oeste 12 Oeste 0 1011.2 1.4 83
2019-07-30 07:00:00 22.8 5 Oeste 13 Oeste 0 1010.4 0.8 85
2019-07-30 06:00:00 22.7 3 Sudoeste 9 Oeste 0 1010.1 0.5 85
2019-07-30 05:00:00 23.4 3 Sudoeste 11 Sudoeste 0 1009.8 0.3 82
2019-07-30 04:00:00 23.6 2 Este 15 Sudoeste 0 1009.6 0 81
2019-07-30 03:00:00 23.9 5 Sudoeste 19 Sudoeste 0 1009.6 0.2 78
2019-07-30 02:00:00 24.3 11 Sudoeste 36 Sudoeste 0 1009.5 0.3 73
2019-07-30 01:00:00 24.7 14 Sudoeste 30 Sudoeste 0 1009.6 1 71
2019-07-30 00:00:00 24.8 8 Sudoeste 26 Sudoeste 0 1009.4 1.4 67
2019-07-29 23:00:00 25 13 Sudoeste 32 Sudoeste 0 1009.2 1.3 64
2019-07-29 22:00:00 25.3 14 Sudoeste 34 Sudoeste 0 1008.6 0.5 65
2019-07-29 21:00:00 26.3 19 Sudoeste 40 Sudoeste 0 1008 -0.6 58
2019-07-29 20:00:00 27.9 19 Sudoeste 38 Sudoeste 0 1007.9 -0.9 56
2019-07-29 19:00:00 29.6 17 Sudoeste 35 Sudoeste 0 1008.1 -1 48
2019-07-29 18:00:00 29.8 18 Sur 40 Sudoeste 0 1008.6 -0.5 50
2019-07-29 17:00:00 30.8 21 Sudoeste 42 Sur 0 1008.8 -0.5 46
2019-07-29 16:00:00 30.8 22 Sur 40 Sur 0 1009.1 -0.5 45
2019-07-29 15:00:00 30.7 26 Sur 49 Sudoeste 0 1009.1 -0.7 46
2019-07-29 14:00:00 31.4 22 Sur 44 Sur 0 1009.3 -0.3 39
2019-07-29 13:00:00 31.3 20 Sur 39 Sur 0 1009.6 -0.3 36
2019-07-29 12:00:00 31.1 16 Sur 32 Sur 0 1009.8 -0.3 32
2019-07-29 11:00:00 29.6 9 Sur 22 Sur 0 1009.6 -0.1 47
2019-07-29 10:00:00 27.1 13 Sudoeste 24 Sur 0 1009.9 0.6 62
2019-07-29 09:00:00 24.4 5 Sudoeste 10 Sudoeste 0 1010.1 1 76
2019-07-29 08:00:00 20.9 6 Oeste 11 Oeste 0 1009.7 0.6 80
2019-07-29 07:00:00 19.6 6 Sudoeste 9 Oeste 0 1009.3 0.1 83
2019-07-29 06:00:00 20.2 8 Sudoeste 9 Sudoeste 0 1009.1 -0.1 82
2019-07-29 05:00:00 21 0 Calma 10 Sudoeste 0 1009.1 -0.1 84
2019-07-29 04:00:00 22.4 3 Oeste 7 Oeste 0 1009.2 0 80
2019-07-29 03:00:00 23.1 2 Sudoeste 13 Oeste 0 1009.2 0 79
2019-07-29 02:00:00 23.7 3 Oeste 11 Sudoeste 0 1009.2 0.4 77
2019-07-29 01:00:00 24.3 5 Sudoeste 25 Sudoeste 0 1009.2 0.9 73
2019-07-29 00:00:00 24.9 12 Sudoeste 25 Oeste 0 1009.2 1.1 71
2019-07-28 23:00:00 25 7 Oeste 26 Noroeste 0 1008.8 1 66
2019-07-28 22:00:00 25.2 15 Sudoeste 35 Sur 0 1008.3 0.3 65
2019-07-28 21:00:00 26.2 14 Sur 36 Sur 0 1008.1 -0.2 61
2019-07-28 20:00:00 27.6 19 Sur 33 Sur 0 1007.8 -1 54
2019-07-28 19:00:00 28.9 15 Sur 36 Sur 0 1008 -1.3 47
2019-07-28 18:00:00 29.7 17 Sur 33 Sur 0 1008.3 -1.1 43
2019-07-28 17:00:00 29.8 15 Sur 31 Sudeste 0 1008.8 -0.7 39
2019-07-28 16:00:00 30.2 14 Sudeste 27 Este 0 1009.3 -0.2 38
2019-07-28 15:00:00 29.1 13 Este 28 Este 0 1009.4 0.1 39
2019-07-28 14:00:00 29 10 Este 23 Este 0 1009.5 0.3 36
2019-07-28 13:00:00 29.4 11 Nordeste 28 Nordeste 0 1009.5 0.4 33
2019-07-28 12:00:00 28.6 19 Norte 37 Norte 0 1009.3 0.5 30
2019-07-28 11:00:00 28.3 17 Norte 33 Nordeste 0 1009.2 1 37
2019-07-28 10:00:00 28.1 11 Norte 29 Noroeste 0 1009.1 1.8 35
2019-07-28 09:00:00 26.5 14 Noroeste 27 Noroeste 0 1008.8 2 36
2019-07-28 08:00:00 24.6 12 Noroeste 27 Noroeste 0 1008.2 1.6 46
2019-07-28 07:00:00 24.5 16 Norte 32 Norte 0 1007.3 0.7 51
2019-07-28 06:00:00 23.5 9 Norte 19 Norte 0 1006.8 0.2 57
2019-07-28 05:00:00 23.2 2 Sur 17 Nordeste 0 1006.6 -0.1 60
2019-07-28 04:00:00 25 8 Norte 30 Norte 0 1006.6 0.2 53
2019-07-28 03:00:00 25.8 16 Norte 29 Norte 0 1006.6 1 52
2019-07-28 02:00:00 26.3 15 Norte 30 Noroeste 0 1006.7 2.6 58
2019-07-28 01:00:00 26.4 14 Norte 33 Norte 0 1006.4 4.2 63
2019-07-28 00:00:00 26.9 22 Norte 36 Norte 0 1005.6 3.8 67
2019-07-27 23:00:00 30.5 18 Noroeste 36 Norte 0 1004.1 2.7 31
2019-07-26 12:00:00 29.8 10 Sur 21 Sudeste 0 1009.6 -0.5 55
2019-07-26 11:00:00 29.8 4 Sudeste 12 Este 0 1009.8 -0.5 55
2019-07-26 10:00:00 26.8 5 Sudoeste 10 Oeste 0 1010.2 0.2 70
2019-07-26 09:00:00 24.6 5 Oeste 11 Oeste 0 1010.1 0.2 76
2019-07-26 08:00:00 20.4 8 Sudoeste 11 Sudoeste 0 1010.3 0.2 83
2019-07-26 07:00:00 20.5 7 Oeste 11 Sudoeste 0 1010 -0.4 85
2019-07-26 06:00:00 20.7 7 Oeste 9 Oeste 0 1009.9 -0.8 87
2019-07-26 05:00:00 21.4 5 Sudoeste 10 Sudoeste 0 1010.1 -1 85
2019-07-26 04:00:00 23.2 3 Sudoeste 12 Sudoeste 0 1010.4 -1.1 82
2019-07-26 03:00:00 23.8 2 Noroeste 13 Sudoeste 0 1010.7 -1 88
2019-07-26 02:00:00 24 5 Sudoeste 14 Sudoeste 0 1011.1 -0.5 83
2019-07-26 01:00:00 25 9 Sudoeste 20 Sudoeste 0 1011.5 0.1 83
2019-07-26 00:00:00 25.4 11 Sudoeste 22 Sur 0 1011.7 0.5 81
2019-07-25 23:00:00 25.7 6 Sur 11 Sudoeste 0 1011.6 0.7 70
2019-07-25 22:00:00 27 4 Sudoeste 12 Sur 0 1011.4 0.4 39
2019-07-25 21:00:00 29.8 6 Sur 15 Sudoeste 0 1011.2 -0.3 27
2019-07-25 20:00:00 32.3 8 Sur 20 Sudeste 0 1010.9 -1.1 26
2019-07-25 19:00:00 33 13 Sur 24 Sudeste 0 1011 -1.4 26
2019-07-25 18:00:00 33.9 12 Sudeste 27 Sudeste 0 1011.5 -1.5 26
2019-07-25 17:00:00 34.6 10 Sudeste 23 Este 0 1012 -1.5 23
2019-07-25 16:00:00 32.3 13 Este 24 Este 0 1012.4 -1.3 39
2019-07-25 15:00:00 31.4 12 Este 25 Este 0 1013 -0.6 44
2019-07-25 14:00:00 31.2 12 Este 22 Este 0 1013.5 0 40
2019-07-25 13:00:00 31.4 9 Este 19 Este 0 1013.7 0.3 45
2019-07-25 12:00:00 33 8 Este 17 Norte 0 1013.6 0.1 35
2019-07-25 11:00:00 31.8 10 Norte 21 Noroeste 0 1013.5 0.3 43
2019-07-25 10:00:00 28.9 3 Sur 10 Oeste 0 1013.4 0.3 47
2019-07-25 09:00:00 24.4 8 Sudoeste 11 Sudoeste 0 1013.5 0.6 53
2019-07-25 08:00:00 20.1 8 Oeste 13 Oeste 0 1013.2 0 61
2019-07-25 07:00:00 19.4 9 Sudoeste 14 Oeste 0 1013.1 -0.1 59
2019-07-25 06:00:00 19.4 8 Sudoeste 12 Sudoeste 0 1012.9 -0.5 59
2019-07-25 05:00:00 19.4 7 Sudoeste 9 Sudoeste 0 1013.2 -0.5 61
2019-07-25 04:00:00 20.8 6 Sudoeste 9 Oeste 0 1013.2 -0.7 56
2019-07-25 03:00:00 22.2 8 Sudoeste 11 Oeste 0 1013.4 -0.5 50
2019-07-25 02:00:00 22.5 6 Oeste 9 Oeste 0 1013.7 0 51
2019-07-25 01:00:00 24.4 5 Sudoeste 11 Oeste 0 1013.9 0.6 46
2019-07-25 00:00:00 25.2 6 Sudoeste 10 Oeste 0 1013.9 1 44
2019-07-24 23:00:00 26.3 6 Oeste 13 Oeste 0 1013.7 0.9 40
2019-07-24 22:00:00 26.9 8 Sudoeste 12 Sudoeste 0 1013.3 0.5 38
2019-07-24 21:00:00 30 5 Sudeste 14 Sur 0 1012.9 -0.6 30
2019-07-24 20:00:00 31.8 7 Sur 16 Sur 0 1012.8 -1.1 29
2019-07-24 19:00:00 32.3 7 Este 17 Este 0 1012.8 -1.6 37
2019-07-24 18:00:00 32 8 Este 21 Este 0 1013.5 -1.2 39
2019-07-24 17:00:00 31.3 8 Este 21 Nordeste 0 1013.9 -0.9 47
2019-07-24 16:00:00 30.9 9 Este 21 Este 0 1014.4 -0.4 55
2019-07-24 15:00:00 32.4 11 Este 19 Este 0 1014.7 0 39
2019-07-24 14:00:00 32.8 11 Este 18 Este 0 1014.8 0.1 40
2019-07-24 13:00:00 34.5 8 Nordeste 21 Norte 0 1014.8 0.1 32
2019-07-24 12:00:00 33.1 13 Norte 23 Noroeste 0 1014.7 0 44
2019-07-24 11:00:00 32.1 10 Norte 19 Norte 0 1014.7 -0.1 46
2019-07-24 10:00:00 28.7 3 Oeste 10 Oeste 0 1014.7 0.3 53
2019-07-24 09:00:00 24.2 6 Oeste 12 Oeste 0 1014.7 0.4 48
2019-07-24 08:00:00 19.8 9 Sudoeste 12 Sudoeste 0 1014.8 0.3 61
2019-07-24 07:00:00 19.1 8 Sudoeste 12 Oeste 0 1014.4 -0.4 64
2019-07-24 06:00:00 19.2 7 Sudoeste 13 Oeste 0 1014.3 -0.9 66
2019-07-24 05:00:00 20.1 8 Oeste 14 Oeste 0 1014.5 -0.8 62
2019-07-24 04:00:00 20.4 9 Sudoeste 11 Oeste 0 1014.8 -0.5 68
2019-07-24 03:00:00 21.3 8 Sudoeste 14 Oeste 0 1015.2 0.1 66
2019-07-24 02:00:00 21.4 8 Oeste 13 Oeste 0 1015.3 0.6 71
2019-07-24 01:00:00 22.2 7 Sudoeste 10 Oeste 0 1015.3 1 75
2019-07-24 00:00:00 23.2 3 Sudoeste 8 Oeste 0 1015.1 1 78
2019-07-23 23:00:00 25 5 Oeste 10 Oeste 0 1014.7 0.1 72
2019-07-23 22:00:00 26.6 4 Nordeste 15 Este 0 1014.3 -0.6 69
2019-07-23 21:00:00 27.7 6 Nordeste 16 Nordeste 0 1014.1 -1.1 63
2019-07-23 20:00:00 29 7 Este 17 Nordeste 0 1014.6 -1 61
2019-07-23 19:00:00 29.7 11 Nordeste 19 Nordeste 0 1014.9 -1.1 56
2019-07-23 18:00:00 30.4 10 Este 22 Este 0 1015.2 -1.1 54
2019-07-23 17:00:00 31.1 10 Nordeste 18 Nordeste 0 1015.6 -0.8 51
2019-07-23 16:00:00 33.5 8 Nordeste 19 Nordeste 0 1016 -0.6 31
2019-07-23 15:00:00 33.3 8 Norte 20 Norte 0 1016.3 -0.7 38
2019-07-23 14:00:00 32.3 11 Nordeste 24 Nordeste 0 1016.4 -0.5 31
2019-07-23 13:00:00 32.6 9 Nordeste 21 Nordeste 0 1016.6 -0.2 40
2019-07-23 12:00:00 32.1 8 Nordeste 19 Nordeste 0 1017 0 34
2019-07-23 11:00:00 31.2 8 Norte 23 Norte 0 1016.9 0 33
2019-07-23 10:00:00 29.1 5 Norte 18 Norte 0 1016.8 0 55
2019-07-23 09:00:00 25.2 6 Oeste 15 Oeste 0 1017 0 69
2019-07-23 08:00:00 22.7 9 Sudoeste 14 Oeste 0 1016.9 -0.3 79
2019-07-23 07:00:00 22.3 8 Oeste 14 Oeste 0 1016.8 -0.6 78
2019-07-23 06:00:00 22.6 7 Oeste 14 Oeste 0 1017 -0.8 78
2019-07-23 05:00:00 22.5 5 Oeste 15 Sudoeste 0 1017.2 -1.2 81
2019-07-23 04:00:00 22.9 7 Sudoeste 14 Sudoeste 0 1017.4 -1.1 81
2019-07-23 03:00:00 23 7 Sudoeste 13 Sudoeste 0 1017.8 -0.6 83
2019-07-23 02:00:00 23.2 5 Sudoeste 14 Oeste 0 1018.4 0.1 82
2019-07-23 01:00:00 23.5 5 Sudoeste 11 Oeste 0 1018.5 0.3 78
2019-07-23 00:00:00 23.5 5 Sudoeste 9 Sudoeste 0 1018.4 0.2 77
2019-07-22 23:00:00 25.1 5 Sudoeste 12 Noroeste 0 1018.3 0.1 69
2019-07-22 22:00:00 26.3 8 Norte 16 Nordeste 0 1018.2 -0.2 64
2019-07-22 21:00:00 27.6 10 Nordeste 19 Nordeste 0 1018.2 -0.7 61
2019-07-22 20:00:00 29.4 10 Norte 20 Nordeste 0 1018.2 -1.3 52
2019-07-22 19:00:00 30.7 12 Norte 23 Norte 0 1018.4 -1.3 48
2019-07-22 18:00:00 31 14 Norte 28 Norte 0 1018.9 -0.9 48
2019-07-22 17:00:00 31.9 15 Norte 26 Norte 0 1019.5 -0.5 44
2019-07-22 16:00:00 32.3 13 Norte 26 Norte 0 1019.7 -0.8 35
2019-07-22 15:00:00 32.6 14 Norte 27 Norte 0 1019.8 -0.5 39
2019-07-22 14:00:00 32.8 14 Norte 26 Noroeste 0 1020 -0.1 36
2019-07-22 13:00:00 31.4 15 Norte 27 Norte 0 1020.5 0.5 50
2019-07-22 12:00:00 30.6 14 Norte 28 Norte 0 1020.3 0.5 51
2019-07-22 11:00:00 29.1 14 Norte 35 Noroeste 0 1020.1 0.4 62
2019-07-22 10:00:00 28.6 13 Norte 29 Norte 0 1020 0.7 68
2019-07-22 09:00:00 26.7 14 Noroeste 26 Noroeste 0 1019.8 0.7 75
2019-07-22 08:00:00 25.1 8 Norte 22 Noroeste 0 1019.7 0.9 83
2019-07-22 07:00:00 24.4 7 Norte 18 Noroeste 0 1019.3 0 86
2019-07-22 06:00:00 24.5 9 Norte 21 Norte 0 1019.1 -0.5 86
2019-07-22 05:00:00 24.6 9 Noroeste 21 Noroeste 0 1018.8 -1.3 86
2019-07-22 04:00:00 24.1 6 Sudoeste 17 Oeste 0 1019.3 -0.9 87
2019-07-22 03:00:00 23.3 6 Sudoeste 12 Oeste 0 1019.6 -0.2 84
2019-07-22 02:00:00 23.9 7 Sudoeste 13 Sudoeste 0 1020.1 0.6 82
2019-07-22 01:00:00 23.9 6 Sudoeste 12 Oeste 0 1020.2 1.8 82
2019-07-22 00:00:00 24.1 5 Sudoeste 9 Sudoeste 0 1019.8 1.7 81
2019-07-21 23:00:00 25.4 4 Sudoeste 19 Noroeste 0 1019.5 1.7 75
2019-07-21 22:00:00 26.3 12 Norte 24 Noroeste 0 1018.4 0.8 72
2019-07-21 21:00:00 27.3 13 Noroeste 23 Noroeste 0 1018.1 0.2 68
2019-07-21 20:00:00 28.5 10 Norte 21 Norte 0 1017.8 -0.4 64
2019-07-21 19:00:00 29.1 13 Norte 24 Nordeste 0 1017.6 -0.9 61
2019-07-21 18:00:00 29.5 18 Nordeste 34 Nordeste 0 1017.9 -0.9 60
2019-07-21 17:00:00 31 19 Norte 37 Nordeste 0 1018.2 -0.3 54
2019-07-21 16:00:00 31.1 18 Norte 35 Norte 0 1018.5 -0.2 56
2019-07-21 15:00:00 31.5 16 Norte 38 Norte 0 1018.8 0.3 54
2019-07-21 14:00:00 31.5 19 Norte 39 Noroeste 0 1018.5 0.3 48
2019-07-21 13:00:00 30.4 22 Norte 41 Noroeste 0 1018.7 0.7 57
2019-07-21 12:00:00 29.6 22 Noroeste 37 Norte 0 1018.5 0.8 61
2019-07-21 11:00:00 28.8 21 Norte 33 Noroeste 0 1018.2 1.2 63
2019-07-21 10:00:00 28.8 13 Norte 28 Noroeste 0 1018 1.3 62
2019-07-21 09:00:00 26.8 14 Noroeste 27 Noroeste 0 1017.7 1.8 72
2019-07-21 08:00:00 25.1 11 Noroeste 22 Noroeste 0 1017 1.5 80
2019-07-21 07:00:00 24.7 8 Noroeste 27 Norte 0 1016.7 0.7 83
2019-07-21 06:00:00 24.9 14 Noroeste 32 Nordeste 0 1015.9 -0.2 83
2019-07-21 05:00:00 25 8 Noroeste 30 Norte 0 1015.5 -0.7 83
2019-07-21 04:00:00 24.9 5 Norte 28 Noroeste 0 1016 -0.8 85
2019-07-21 03:00:00 25.1 9 Noroeste 28 Noroeste 0 1016.1 -0.8 85
2019-07-21 02:00:00 24.6 11 Noroeste 23 Noroeste 0 1016.2 -0.2 86
2019-07-21 01:00:00 23.9 2 Noroeste 8 Noroeste 0 1016.8 1.4 87
2019-07-21 00:00:00 24.3 4 Sur 13 Noroeste 0 1016.9 2.3 82